EDT,Max TemperatureF,Mean TemperatureF,Min TemperatureF,Max Dew PointF,MeanDew PointF,Min DewpointF,Max Humidity, Mean Humidity, Min Humidity, Max Sea Level PressureIn, Mean Sea Level PressureIn, Min Sea Level PressureIn, Max VisibilityMiles, Mean VisibilityMiles, Min VisibilityMiles, Max Wind SpeedMPH, Mean Wind SpeedMPH, Max Gust SpeedMPH,PrecipitationIn, CloudCover, Events, WindDirDegrees
2013-8-1,78,71,64,66,64,61,94,78,54,30.07,29.99,29.92,10,10,8,16,8,22,0.03,2,,200
2013-8-2,80,71,62,70,65,61,100,85,61,29.92,29.84,29.81,10,10,5,14,8,16,0.09,4,,205
2013-8-3,73,71,69,66,65,63,88,83,73,29.89,29.84,29.80,10,10,10,18,12,24,0.00,2,,228
2013-8-4,77,67,57,64,59,55,100,72,50,29.87,29.82,29.79,10,10,7,13,8,26,0.08,1,Thunderstorm,297
2013-8-5,71,62,53,55,52,45,94,64,38,30.05,29.95,29.87,10,10,10,20,14,26,0.00,0,,307
2013-8-6,75,65,55,57,54,48,94,66,44,30.18,30.13,30.05,10,10,10,9,6,,0.00,0,,27
2013-8-7,77,65,53,64,55,48,94,69,38,30.21,30.19,30.15,10,10,10,13,5,16,0.00,0,,194
2013-8-8,78,71,64,70,64,55,94,80,65,30.17,30.10,30.05,10,10,6,20,10,25,0.16,3,,197
2013-8-9,73,71,69,72,70,66,100,94,88,30.07,29.94,29.79,10,8,2,23,14,31,0.97,4,Thunderstorm,199
2013-8-10,82,73,64,70,64,59,100,76,48,30.01,29.89,29.79,10,8,0,15,10,21,0.00,2,,272
2013-8-11,75,65,55,63,55,46,94,64,38,30.09,30.05,30.01,10,10,10,13,6,17,0.00,0,,288
2013-8-12,78,70,62,68,63,55,94,80,47,30.04,30.00,29.94,10,10,10,14,9,18,0.00,1,,224
2013-8-13,71,66,60,70,65,59,100,90,73,29.94,29.82,29.70,10,8,0,10,5,,0.01,3,,175
2013-8-14,73,66,60,64,57,52,100,70,50,29.95,29.76,29.67,10,10,8,18,9,23,0.00,1,,283
2013-8-15,75,68,62,57,52,46,73,59,36,30.09,30.04,29.95,10,10,8,16,12,23,0.00,0,,273
2013-8-16,77,70,64,63,57,54,88,61,44,30.21,30.17,30.15,10,10,4,15,9,17,0.00,1,,228
2013-8-17,69,62,55,63,59,54,94,82,73,30.29,30.26,30.21,10,10,9,9,6,,0.00,0,,356
2013-8-18,77,67,57,64,59,55,100,76,50,30.29,30.23,30.10,10,10,8,10,4,,0.00,0,,201
2013-8-19,78,68,59,63,60,54,88,73,51,30.10,30.02,29.96,10,10,9,13,8,,0.00,0,,249
2013-8-20,82,72,62,66,63,59,94,74,45,30.10,30.05,29.98,10,10,10,10,7,,0.00,0,,250
2013-8-21,84,74,64,66,64,63,94,74,48,30.16,30.11,30.05,10,10,9,12,7,16,0.00,0,,230
2013-8-22,80,74,68,72,68,64,100,88,70,30.06,29.96,29.85,10,9,5,17,11,22,0.01,1,,219
2013-8-23,71,64,57,68,61,55,94,81,60,30.10,29.95,29.82,10,10,8,14,10,21,0.00,1,,357
2013-8-24,69,60,50,63,55,46,94,74,56,30.33,30.26,30.11,10,10,10,16,8,22,0.00,0,,17
2013-8-25,77,64,50,61,55,45,94,71,38,30.37,30.30,30.21,10,10,9,15,6,20,0.00,0,,255
2013-8-26,75,70,64,64,62,55,88,80,69,30.21,30.04,29.90,10,10,10,18,12,23,0.00,3,,220
2013-8-27,71,68,64,70,66,63,100,94,88,29.91,29.88,29.85,10,4,0,9,4,,0.01,8,,77
2013-8-28,66,64,62,64,63,61,100,96,88,29.96,29.91,29.87,10,1,0,9,4,,0.01,8,,40
2013-8-29,68,64,60,64,61,55,100,89,77,30.06,30.02,29.96,10,10,3,18,10,23,0.00,7,,46
2013-8-30,75,68,60,66,62,57,100,84,69,30.02,29.93,29.86,10,10,10,15,9,20,0.00,4,,254
2013-8-31,77,72,66,70,68,66,100,91,78,29.87,29.85,29.83,10,8,3,17,12,24,0.00,3,,212